Time;durP1;ratioP1;P1;durP2;ratioP2;P2;SDS_P1;SDS_P2;PMS_P1;PMS_P2;Temp;Humidity;BMP_temperature;BMP_pressure;BME280_temperature;BME280_humidity;BME280_pressure;Samples;Min_cycle;Max_cycle;Signal;HPM_P1;HPM_P2
2022/10/11 00:01:19;;;;;;;2.83;2.10;;;20.30;58.30;;;;;;5019330;28;20220;-72
2022/10/11 00:03:46;;;;;;;3.03;2.35;;;20.30;58.30;;;;;;5019301;28;20227;-71
2022/10/11 00:06:13;;;;;;;2.25;2.00;;;20.30;58.30;;;;;;5036757;28;20192;-70
2022/10/11 00:08:40;;;;;;;3.35;2.13;;;20.30;58.30;;;;;;5002954;28;20680;-70
2022/10/11 00:11:07;;;;;;;2.95;2.20;;;20.30;58.30;;;;;;5019007;28;20222;-70
2022/10/11 00:13:34;;;;;;;2.08;1.90;;;20.20;58.80;;;;;;5018990;28;20254;-70
2022/10/11 00:16:01;;;;;;;2.53;2.33;;;20.30;58.30;;;;;;5018997;28;20246;-70
2022/10/11 00:18:29;;;;;;;2.30;2.10;;;20.30;58.40;;;;;;5018932;28;20628;-70
2022/10/11 00:21:03;;;;;;;2.63;2.22;;;20.30;58.30;;;;;;5018886;28;20216;-70
2022/10/11 00:23:30;;;;;;;2.60;2.40;;;20.30;58.40;;;;;;5018890;28;20286;-70
2022/10/11 00:25:58;;;;;;;2.35;2.15;;;20.20;58.30;;;;;;5019608;28;20285;-70
2022/10/11 00:28:25;;;;;;;2.33;2.00;;;20.30;58.40;;;;;;5018624;28;20250;-71
2022/10/11 00:30:52;;;;;;;3.05;2.20;;;20.20;58.30;;;;;;5018640;28;20234;-70
2022/10/11 00:33:19;;;;;;;4.15;2.40;;;20.20;58.30;;;;;;5002416;28;20674;-70
2022/10/11 00:35:47;;;;;;;2.83;2.13;;;20.20;58.30;;;;;;5036352;28;20196;-70
2022/10/11 00:38:15;;;;;;;2.25;2.05;;;20.20;58.80;;;;;;5018539;28;20258;-70
2022/10/11 00:40:42;;;;;;;2.92;2.13;;;20.20;58.30;;;;;;5018777;28;20256;-70
2022/10/11 00:43:11;;;;;;;3.47;2.05;;;20.20;58.30;;;;;;5020015;28;20224;-70
2022/10/11 00:46:25;;;;;;;3.28;2.30;;;20.20;58.30;;;;;;5018737;28;20655;-70
2022/10/11 00:48:55;;;;;;;2.92;2.20;;;20.20;58.30;;;;;;4978938;28;20201;-71
2022/10/11 00:51:26;;;;;;;2.08;1.88;;;20.10;58.30;;;;;;5013821;28;20227;-71
2022/10/11 00:53:53;;;;;;;2.38;1.92;;;20.10;58.30;;;;;;5019123;28;20207;-71
2022/10/11 00:56:22;;;;;;;2.75;2.22;;;20.10;58.30;;;;;;5035956;28;20188;-71
2022/10/11 00:58:49;;;;;;;3.25;2.10;;;20.10;58.30;;;;;;5018092;28;20220;-71
2022/10/11 01:01:16;;;;;;;2.35;2.15;;;20.10;58.30;;;;;;5017997;28;20220;-71
2022/10/11 01:03:43;;;;;;;2.40;2.20;;;20.10;58.30;;;;;;5018117;28;20196;-71
2022/10/11 01:06:10;;;;;;;2.47;1.88;;;20.10;58.40;;;;;;5018090;28;20637;-71
2022/10/11 01:08:38;;;;;;;3.67;2.25;;;20.00;58.30;;;;;;5017944;28;20196;-71
2022/10/11 01:11:05;;;;;;;2.22;1.95;;;20.00;58.40;;;;;;5018167;28;20224;-71
2022/10/11 01:13:39;;;;;;;2.50;2.30;;;20.00;58.40;;;;;;5017877;28;20717;-71
2022/10/11 01:16:11;;;;;;;2.53;2.30;;;20.00;58.50;;;;;;5018147;28;20635;-73
2022/10/11 01:18:42;;;;;;;2.88;2.20;;;20.00;59.00;;;;;;5017564;28;20241;-72
2022/10/11 01:21:11;;;;;;;2.47;2.00;;;20.00;58.30;;;;;;5017727;28;20587;-72
2022/10/11 01:24:14;;;;;;;2.53;2.25;;;20.00;58.30;;;;;;5017656;28;20192;-72
2022/10/11 01:27:06;;;;;;;2.28;2.00;;;20.00;58.30;;;;;;5001688;28;20204;-72
2022/10/11 01:29:40;;;;;;;2.85;2.10;;;19.90;58.30;;;;;;4978857;28;20203;-72
2022/10/11 01:32:10;;;;;;;3.45;2.30;;;20.00;58.40;;;;;;5017638;28;20220;-72
2022/10/11 01:34:39;;;;;;;2.80;2.25;;;20.00;58.40;;;;;;5018446;28;20277;-72
2022/10/11 01:37:09;;;;;;;2.60;2.10;;;20.00;58.40;;;;;;5017551;28;20192;-72
2022/10/11 01:39:37;;;;;;;2.20;2.00;;;19.90;58.30;;;;;;5017573;28;20637;-72
2022/10/11 01:42:05;;;;;;;2.90;2.20;;;19.90;58.40;;;;;;5017552;28;20224;-72
2022/10/11 01:44:33;;;;;;;3.85;2.20;;;19.90;58.30;;;;;;5017689;28;20283;-72
2022/10/11 01:47:00;;;;;;;2.20;1.88;;;19.90;58.40;;;;;;5017714;28;20207;-72
2022/10/11 01:49:29;;;;;;;2.20;2.00;;;19.90;58.50;;;;;;5017566;28;20207;-72
2022/10/11 01:51:57;;;;;;;2.33;2.10;;;19.80;58.50;;;;;;5018003;28;20269;-72
2022/10/11 01:54:31;;;;;;;2.80;2.30;;;19.80;58.50;;;;;;5018013;28;20242;-72
2022/10/11 01:57:26;;;;;;;3.15;2.00;;;19.80;58.30;;;;;;5017423;28;20203;-72
2022/10/11 01:59:58;;;;;;;2.58;2.38;;;19.80;58.40;;;;;;5003728;28;20633;-72
2022/10/11 02:02:32;;;;;;;2.40;2.20;;;19.80;58.40;;;;;;5016872;28;20235;-72
2022/10/11 02:05:02;;;;;;;4.80;2.40;;;19.80;58.40;;;;;;5016938;28;20195;-72
2022/10/11 02:07:31;;;;;;;2.25;2.10;;;19.80;58.50;;;;;;5016968;28;20250;-73
2022/10/11 02:10:00;;;;;;;2.38;2.00;;;19.80;58.50;;;;;;5016914;28;20569;-72
2022/10/11 02:12:30;;;;;;;2.35;2.10;;;19.80;58.50;;;;;;5016668;28;20665;-72
2022/10/11 02:14:57;;;;;;;2.45;2.13;;;19.70;58.50;;;;;;5016761;28;20211;-72
2022/10/11 02:17:27;;;;;;;2.17;1.98;;;19.70;58.40;;;;;;5000266;28;20200;-72
2022/10/11 02:19:54;;;;;;;3.90;2.30;;;19.70;58.50;;;;;;5016481;28;20682;-72
2022/10/11 02:22:23;;;;;;;2.63;2.10;;;19.70;58.50;;;;;;5016692;28;20234;-72
2022/10/11 02:24:51;;;;;;;3.13;2.22;;;19.70;58.50;;;;;;5016673;28;20200;-72
2022/10/11 02:27:19;;;;;;;3.30;2.10;;;19.70;58.60;;;;;;5016688;28;20287;-72
2022/10/11 02:29:47;;;;;;;2.45;1.88;;;19.70;58.60;;;;;;5016542;28;20203;-72
2022/10/11 02:32:14;;;;;;;2.42;2.22;;;19.70;58.60;;;;;;5016888;28;20582;-72
2022/10/11 02:34:43;;;;;;;2.17;1.92;;;19.60;58.50;;;;;;5016402;28;20211;-72
2022/10/11 02:37:12;;;;;;;2.35;2.10;;;19.60;58.50;;;;;;5016418;28;20234;-72
2022/10/11 02:39:42;;;;;;;2.90;2.10;;;19.60;58.50;;;;;;5016676;28;20262;-72
2022/10/11 02:42:12;;;;;;;2.97;2.17;;;19.70;58.60;;;;;;5016415;28;20216;-72
2022/10/11 02:44:41;;;;;;;2.72;1.90;;;19.60;58.50;;;;;;5016427;28;20282;-72
2022/10/11 02:47:08;;;;;;;3.17;1.98;;;19.60;58.50;;;;;;5034207;28;20188;-72
2022/10/11 02:49:35;;;;;;;2.78;2.15;;;19.60;58.50;;;;;;4999838;28;20196;-72
2022/10/11 02:52:03;;;;;;;1.80;1.70;;;19.60;58.50;;;;;;5016189;28;20598;-72
2022/10/11 02:54:30;;;;;;;2.65;2.08;;;19.60;58.60;;;;;;5016536;28;20196;-72
2022/10/11 02:56:59;;;;;;;2.55;2.30;;;19.60;58.60;;;;;;5016252;28;20204;-72
2022/10/11 02:59:27;;;;;;;2.45;2.10;;;19.50;58.50;;;;;;5016460;28;20270;-72
2022/10/11 03:01:54;;;;;;;2.30;1.83;;;19.60;58.70;;;;;;5016115;28;20212;-72
2022/10/11 03:04:21;;;;;;;2.38;2.10;;;19.60;58.50;;;;;;5016203;28;20200;-72
2022/10/11 03:06:48;;;;;;;3.15;2.00;;;19.60;58.50;;;;;;5016655;28;20200;-72
2022/10/11 03:09:15;;;;;;;4.50;2.08;;;19.50;58.50;;;;;;5016839;28;20199;-72
2022/10/11 03:11:42;;;;;;;2.42;2.00;;;19.50;58.50;;;;;;5016793;28;20636;-72
2022/10/11 03:14:10;;;;;;;2.40;1.98;;;19.50;58.50;;;;;;5016281;28;20196;-72
2022/10/11 03:16:38;;;;;;;3.95;2.08;;;19.50;58.50;;;;;;5019913;28;20203;-72
2022/10/11 03:19:05;;;;;;;2.92;2.10;;;19.60;58.50;;;;;;5020176;28;20675;-72
2022/10/11 03:21:32;;;;;;;3.17;2.10;;;19.60;58.60;;;;;;5037749;28;20274;-72
2022/10/11 03:23:59;;;;;;;2.20;2.00;;;19.50;58.70;;;;;;5019958;28;20254;-72
2022/10/11 03:26:26;;;;;;;2.72;2.25;;;19.60;58.70;;;;;;5019950;28;20290;-72
2022/10/11 03:28:53;;;;;;;2.30;2.10;;;19.60;58.70;;;;;;5036300;28;20250;-72
2022/10/11 03:31:22;;;;;;;2.30;2.10;;;19.60;58.70;;;;;;5019847;28;20694;-72
2022/10/11 03:33:49;;;;;;;2.10;1.90;;;19.70;58.70;;;;;;5019876;28;20235;-72
2022/10/11 03:36:16;;;;;;;2.20;1.83;;;19.70;58.60;;;;;;5019795;28;20196;-72
2022/10/11 03:38:43;;;;;;;2.30;2.10;;;19.80;58.50;;;;;;5019675;28;20251;-72
2022/10/11 03:41:10;;;;;;;2.38;1.70;;;19.90;58.40;;;;;;5019960;28;20593;-72
2022/10/11 03:43:37;;;;;;;2.47;2.00;;;20.00;58.20;;;;;;5020041;28;20204;-72
2022/10/11 03:46:04;;;;;;;2.20;2.00;;;20.00;58.00;;;;;;5020159;28;20204;-72
2022/10/11 03:48:33;;;;;;;2.50;2.00;;;20.00;57.80;;;;;;5019746;28;20196;-72
2022/10/11 03:50:59;;;;;;;2.45;2.20;;;20.10;57.70;;;;;;5019849;28;20283;-72
2022/10/11 03:53:27;;;;;;;2.20;1.90;;;20.20;57.70;;;;;;5019602;28;20678;-72
2022/10/11 03:55:54;;;;;;;2.60;2.17;;;20.20;57.50;;;;;;5019425;28;20702;-72
2022/10/11 03:58:22;;;;;;;2.63;2.30;;;20.20;57.50;;;;;;5019330;28;20621;-72
2022/10/11 04:00:50;;;;;;;2.70;2.25;;;20.20;57.50;;;;;;5019242;28;20258;-72
2022/10/11 04:03:16;;;;;;;2.28;1.90;;;20.10;57.50;;;;;;5003276;28;20204;-72
2022/10/11 04:05:45;;;;;;;2.40;2.00;;;20.10;57.50;;;;;;5019163;28;20295;-72
2022/10/11 04:08:12;;;;;;;2.22;2.03;;;20.10;57.50;;;;;;5037270;28;20191;-72
2022/10/11 04:10:39;;;;;;;2.75;1.92;;;20.10;57.70;;;;;;5018948;28;20196;-72
2022/10/11 04:13:07;;;;;;;3.58;2.03;;;20.10;57.60;;;;;;5004165;28;20279;-72
2022/10/11 04:15:34;;;;;;;2.60;2.03;;;20.10;57.70;;;;;;5018983;28;20694;-72
2022/10/11 04:18:01;;;;;;;2.65;2.10;;;20.00;57.70;;;;;;5018804;28;20200;-72
2022/10/11 04:20:28;;;;;;;2.60;2.33;;;20.10;57.80;;;;;;5002662;28;20212;-72
2022/10/11 04:22:56;;;;;;;4.65;2.28;;;20.00;57.70;;;;;;5018723;28;20216;-72
2022/10/11 04:25:23;;;;;;;3.13;2.22;;;20.00;57.70;;;;;;5018846;28;20200;-72
2022/10/11 04:27:50;;;;;;;2.50;2.20;;;20.10;57.80;;;;;;5018779;28;20676;-72
2022/10/11 04:30:17;;;;;;;4.25;2.03;;;20.00;57.80;;;;;;5018641;28;20250;-72
2022/10/11 04:32:45;;;;;;;2.40;2.05;;;20.00;57.80;;;;;;5018679;28;20216;-73
2022/10/11 04:35:11;;;;;;;2.58;2.13;;;20.00;57.80;;;;;;5018705;28;20714;-73
2022/10/11 04:37:39;;;;;;;3.30;2.63;;;20.00;57.90;;;;;;5018604;28;20291;-71
2022/10/11 04:40:09;;;;;;;2.83;2.20;;;20.00;58.10;;;;;;5002477;28;20308;-71
2022/10/11 04:42:35;;;;;;;4.20;2.47;;;20.00;58.50;;;;;;5018468;28;20238;-71
2022/10/11 04:45:04;;;;;;;4.68;2.33;;;20.00;58.80;;;;;;5018397;28;20196;-72
2022/10/11 04:47:31;;;;;;;4.50;2.60;;;20.00;58.80;;;;;;5018419;28;20200;-72
2022/10/11 04:49:57;;;;;;;3.47;2.40;;;20.00;58.80;;;;;;5002340;28;20203;-72
2022/10/11 04:52:25;;;;;;;4.75;2.75;;;20.00;59.00;;;;;;5018259;28;20275;-70
2022/10/11 04:54:51;;;;;;;5.13;2.58;;;20.00;59.10;;;;;;5019106;28;20223;-70
2022/10/11 04:57:20;;;;;;;4.63;2.40;;;20.00;59.10;;;;;;5018176;28;20274;-70
2022/10/11 04:59:47;;;;;;;4.38;2.20;;;20.00;59.20;;;;;;5019224;28;20223;-70
2022/10/11 05:02:14;;;;;;;2.88;2.30;;;20.00;59.30;;;;;;5018164;28;20223;-70
2022/10/11 05:04:41;;;;;;;3.08;2.47;;;20.00;59.40;;;;;;5018110;28;20671;-70
2022/10/11 05:07:08;;;;;;;2.78;2.53;;;20.00;59.40;;;;;;5018775;28;20677;-70
2022/10/11 05:09:35;;;;;;;3.35;2.53;;;20.00;59.60;;;;;;5018000;28;20254;-70
2022/10/11 05:12:03;;;;;;;4.93;2.65;;;20.00;59.60;;;;;;5018305;28;20226;-71
2022/10/11 05:14:31;;;;;;;2.88;2.38;;;20.00;59.50;;;;;;5018643;28;20227;-71
2022/10/11 05:16:58;;;;;;;4.75;2.70;;;20.00;59.40;;;;;;5018363;28;20200;-71
2022/10/11 05:19:25;;;;;;;2.53;2.30;;;20.00;59.40;;;;;;5017942;28;20230;-71
2022/10/11 05:21:53;;;;;;;2.50;2.30;;;20.00;59.30;;;;;;5017760;28;20220;-71
2022/10/11 05:24:20;;;;;;;3.38;2.80;;;20.00;59.40;;;;;;5017932;28;20207;-71
2022/10/11 05:26:47;;;;;;;2.60;2.40;;;20.00;59.30;;;;;;5017877;28;20207;-72
2022/10/11 05:29:14;;;;;;;4.60;3.05;;;20.00;59.30;;;;;;5017628;28;20662;-72
2022/10/11 05:31:43;;;;;;;2.80;2.30;;;19.90;59.20;;;;;;5017548;28;20231;-72
2022/10/11 05:34:10;;;;;;;3.22;2.47;;;20.00;59.30;;;;;;5018597;28;20553;-72
2022/10/11 05:36:37;;;;;;;2.38;2.17;;;20.00;59.20;;;;;;5018442;28;20204;-72
2022/10/11 05:39:06;;;;;;;3.78;2.65;;;19.90;59.10;;;;;;5016878;28;20223;-71
2022/10/11 05:41:33;;;;;;;4.07;3.08;;;20.00;59.10;;;;;;5000983;28;20270;-71
2022/10/11 05:44:00;;;;;;;4.47;3.80;;;19.90;58.90;;;;;;5018162;28;20192;-72
2022/10/11 05:46:27;;;;;;;5.10;3.60;;;19.90;58.80;;;;;;5001580;28;20199;-72
2022/10/11 05:48:55;;;;;;;3.78;3.28;;;20.00;58.90;;;;;;5035037;28;20565;-72
2022/10/11 05:51:23;;;;;;;4.75;3.42;;;19.90;58.80;;;;;;5017220;28;20242;-72
2022/10/11 05:53:50;;;;;;;4.63;3.72;;;19.90;58.80;;;;;;5017398;28;20203;-72
2022/10/11 05:56:19;;;;;;;6.60;4.22;;;20.00;58.80;;;;;;5017227;28;20200;-72
2022/10/11 05:58:46;;;;;;;5.55;3.90;;;19.90;58.80;;;;;;5017316;28;20668;-72
2022/10/11 06:01:21;;;;;;;4.43;3.47;;;19.90;58.80;;;;;;5017188;28;20655;-72
2022/10/11 06:03:48;;;;;;;4.00;3.35;;;19.90;58.80;;;;;;5017187;28;20192;-72
2022/10/11 06:06:16;;;;;;;4.50;3.40;;;20.00;58.80;;;;;;5017124;28;20204;-71
2022/10/11 06:08:43;;;;;;;4.13;3.60;;;19.90;58.80;;;;;;5017145;28;20207;-71
2022/10/11 06:11:12;;;;;;;5.60;3.50;;;19.90;58.80;;;;;;5017620;28;20602;-71
2022/10/11 06:13:39;;;;;;;4.72;3.42;;;20.00;58.80;;;;;;5016742;28;20674;-71
2022/10/11 06:16:07;;;;;;;3.92;3.20;;;19.90;58.80;;;;;;5016672;28;20659;-71
2022/10/11 06:18:34;;;;;;;8.77;4.15;;;20.00;58.80;;;;;;5034503;28;20199;-71
2022/10/11 06:21:01;;;;;;;6.55;3.85;;;20.00;58.80;;;;;;5016597;28;20593;-71
2022/10/11 06:23:30;;;;;;;4.53;4.07;;;20.00;58.70;;;;;;5016594;28;20266;-71
2022/10/11 06:25:57;;;;;;;6.63;4.55;;;20.10;58.60;;;;;;5016572;28;20207;-71
2022/10/11 06:28:25;;;;;;;4.45;3.85;;;20.10;58.50;;;;;;5017500;28;20234;-71
2022/10/11 06:30:52;;;;;;;3.78;3.35;;;20.10;58.40;;;;;;5034325;28;20208;-71
2022/10/11 06:33:20;;;;;;;4.68;3.80;;;20.10;58.40;;;;;;5016438;28;20834;-71
2022/10/11 06:35:46;;;;;;;5.43;4.32;;;20.20;58.40;;;;;;5016376;28;20195;-72
2022/10/11 06:38:13;;;;;;;4.28;3.72;;;20.20;58.30;;;;;;5016529;28;20254;-72
2022/10/11 06:40:42;;;;;;;6.57;4.10;;;20.20;58.20;;;;;;5000549;28;20230;-72
2022/10/11 06:43:09;;;;;;;5.68;4.55;;;20.20;58.20;;;;;;5034283;28;20665;-72
2022/10/11 06:45:36;;;;;;;8.20;4.50;;;20.20;58.20;;;;;;5016341;28;20226;-72
2022/10/11 06:48:04;;;;;;;5.13;4.22;;;20.20;58.10;;;;;;5016298;28;20254;-72
2022/10/11 06:50:32;;;;;;;4.97;4.30;;;20.20;58.10;;;;;;5015357;28;20196;-72
2022/10/11 06:52:59;;;;;;;4.43;3.80;;;20.20;58.20;;;;;;5016476;28;20238;-72
2022/10/11 06:55:26;;;;;;;7.75;4.50;;;20.20;58.20;;;;;;4999983;28;20200;-72
2022/10/11 06:57:54;;;;;;;4.97;4.47;;;20.20;58.20;;;;;;5016163;28;20208;-72
2022/10/11 07:00:21;;;;;;;5.03;4.50;;;20.20;58.20;;;;;;5015961;28;20212;-72
2022/10/11 07:02:48;;;;;;;4.40;3.80;;;20.20;58.20;;;;;;5016020;28;20224;-72
2022/10/11 07:05:16;;;;;;;4.88;4.38;;;20.20;58.30;;;;;;5016004;28;20731;-72
2022/10/11 07:07:43;;;;;;;5.93;4.10;;;20.20;58.50;;;;;;5016075;28;20334;-72
2022/10/11 07:10:10;;;;;;;5.80;4.20;;;20.20;58.50;;;;;;5015893;28;20585;-72
2022/10/11 07:12:37;;;;;;;4.63;3.95;;;20.20;58.50;;;;;;5015935;28;20216;-72
2022/10/11 07:15:06;;;;;;;4.80;3.88;;;20.10;58.40;;;;;;5015997;28;20200;-72
2022/10/11 07:17:33;;;;;;;5.57;4.28;;;20.20;58.50;;;;;;5016063;28;20195;-72
2022/10/11 07:20:00;;;;;;;3.85;3.25;;;20.20;58.50;;;;;;5015880;28;20216;-72
2022/10/11 07:22:27;;;;;;;5.28;3.70;;;20.20;58.50;;;;;;5015876;28;20285;-72
2022/10/11 07:24:55;;;;;;;5.07;3.53;;;20.20;58.50;;;;;;5015865;28;20232;-72
2022/10/11 07:27:22;;;;;;;5.30;3.85;;;20.20;58.50;;;;;;5016901;28;20203;-72
2022/10/11 07:29:49;;;;;;;4.18;3.72;;;20.20;58.50;;;;;;5015825;28;20303;-72
2022/10/11 07:32:18;;;;;;;4.90;4.15;;;20.20;58.50;;;;;;5015645;28;20664;-72
2022/10/11 07:34:45;;;;;;;6.50;4.22;;;20.20;58.50;;;;;;5015814;28;20574;-72
2022/10/11 07:37:12;;;;;;;5.47;3.90;;;20.20;58.50;;;;;;5016159;28;20218;-72
2022/10/11 07:39:39;;;;;;;6.32;4.47;;;20.20;58.50;;;;;;5015851;28;20207;-72
2022/10/11 07:42:08;;;;;;;5.65;3.88;;;20.20;58.50;;;;;;5015747;28;20222;-72
2022/10/11 07:44:36;;;;;;;7.13;4.18;;;20.30;58.50;;;;;;5015772;28;20659;-72
2022/10/11 07:47:03;;;;;;;7.07;4.45;;;20.20;58.50;;;;;;5015636;28;20204;-72
2022/10/11 07:49:32;;;;;;;7.22;3.75;;;20.20;58.40;;;;;;5015667;28;20659;-72
2022/10/11 07:51:58;;;;;;;4.53;4.00;;;20.30;58.50;;;;;;5015717;28;20270;-72
2022/10/11 07:54:25;;;;;;;6.55;3.90;;;20.30;58.40;;;;;;5015758;28;20226;-72
2022/10/11 07:56:52;;;;;;;5.32;4.13;;;20.30;58.40;;;;;;5015593;28;20196;-72
2022/10/11 07:59:19;;;;;;;5.22;4.72;;;20.30;58.30;;;;;;5015702;28;20569;-72
2022/10/11 08:01:46;;;;;;;4.95;3.95;;;20.30;58.30;;;;;;5035833;28;20695;-72
2022/10/11 08:04:14;;;;;;;4.53;4.13;;;20.30;58.30;;;;;;5019907;28;20200;-72
2022/10/11 08:06:42;;;;;;;5.35;4.03;;;20.30;58.20;;;;;;5037240;28;20196;-72
2022/10/11 08:09:10;;;;;;;5.03;4.45;;;20.30;58.20;;;;;;5019355;28;20250;-72
2022/10/11 08:11:38;;;;;;;6.82;4.63;;;20.40;58.20;;;;;;5018983;28;20212;-72
2022/10/11 08:14:07;;;;;;;5.43;4.63;;;20.40;58.20;;;;;;5019386;28;20200;-72
2022/10/11 08:16:34;;;;;;;6.82;4.15;;;20.40;58.20;;;;;;5019013;28;20601;-72
2022/10/11 08:19:02;;;;;;;7.68;5.07;;;20.40;58.10;;;;;;5037345;28;20196;-72
2022/10/11 08:21:29;;;;;;;4.38;3.97;;;20.40;58.10;;;;;;5018881;28;20224;-72
2022/10/11 08:23:57;;;;;;;5.47;4.20;;;20.40;58.00;;;;;;5018942;28;20232;-72
2022/10/11 08:26:24;;;;;;;5.15;4.25;;;20.50;58.00;;;;;;5018885;28;20734;-72
2022/10/11 08:28:51;;;;;;;8.98;5.57;;;20.50;58.00;;;;;;5018919;28;20207;-72
2022/10/11 08:31:18;;;;;;;6.88;4.55;;;20.50;58.00;;;;;;5018952;28;20216;-71
2022/10/11 08:33:45;;;;;;;5.10;4.00;;;20.60;58.10;;;;;;5021889;28;20200;-71
2022/10/11 08:36:13;;;;;;;5.32;3.60;;;20.60;57.90;;;;;;5021055;28;20219;-71
2022/10/11 08:38:40;;;;;;;4.47;3.85;;;20.60;57.50;;;;;;5019236;28;20204;-71
2022/10/11 08:41:23;;;;;;;5.68;4.00;;;20.60;57.30;;;;;;5018754;28;20242;-71
2022/10/11 08:43:55;;;;;;;5.38;4.05;;;20.70;57.30;;;;;;5018593;28;20250;-70
2022/10/11 08:46:23;;;;;;;5.20;3.95;;;20.70;57.20;;;;;;5018551;28;20199;-70
2022/10/11 08:48:50;;;;;;;5.88;4.00;;;20.80;57.20;;;;;;5018470;28;20224;-70
2022/10/11 08:51:20;;;;;;;6.30;3.65;;;20.80;57.10;;;;;;5018483;28;20307;-70
2022/10/11 08:53:51;;;;;;;5.47;3.60;;;20.80;56.90;;;;;;5018442;28;20207;-70
2022/10/11 08:56:20;;;;;;;6.53;4.40;;;20.90;57.00;;;;;;5035920;28;20183;-70
2022/10/11 08:58:48;;;;;;;5.00;4.32;;;20.90;56.90;;;;;;5018101;28;20211;-71
2022/10/11 09:01:18;;;;;;;5.75;4.10;;;20.90;56.90;;;;;;5018018;28;20234;-71
2022/10/11 09:03:45;;;;;;;4.28;3.25;;;20.90;56.80;;;;;;5018508;28;20206;-71
2022/10/11 09:06:21;;;;;;;4.57;4.05;;;20.90;56.70;;;;;;5018163;28;20207;-71
2022/10/11 09:08:55;;;;;;;4.60;3.90;;;20.90;56.70;;;;;;5018082;28;20188;-71
2022/10/11 09:11:26;;;;;;;4.47;3.70;;;20.90;56.70;;;;;;5017930;28;20304;-71
2022/10/11 09:14:02;;;;;;;4.50;3.42;;;20.90;56.60;;;;;;5034862;28;20191;-71
2022/10/11 09:16:34;;;;;;;6.80;4.28;;;20.90;56.60;;;;;;5017945;28;20627;-71
2022/10/11 09:19:20;;;;;;;5.05;3.92;;;21.00;56.50;;;;;;5017788;28;20662;-71
2022/10/11 09:21:49;;;;;;;5.50;4.07;;;21.00;56.50;;;;;;5018807;28;20219;-71
2022/10/11 09:24:37;;;;;;;4.70;3.47;;;21.00;56.50;;;;;;5017767;28;20200;-71
2022/10/11 09:27:09;;;;;;;4.20;3.80;;;21.00;56.50;;;;;;5017861;28;20212;-71
2022/10/11 09:29:46;;;;;;;5.88;4.07;;;21.10;56.60;;;;;;5018599;28;20196;-71
2022/10/11 09:32:14;;;;;;;3.42;3.13;;;21.10;56.40;;;;;;5035645;28;20208;-71
2022/10/11 09:34:41;;;;;;;6.32;4.75;;;21.10;56.40;;;;;;5017860;28;20204;-71
2022/10/11 09:37:13;;;;;;;4.55;4.13;;;21.10;56.40;;;;;;5017690;28;20254;-71
2022/10/11 09:39:45;;;;;;;5.70;4.50;;;21.10;56.30;;;;;;5017428;28;20218;-71
2022/10/11 09:42:13;;;;;;;5.43;4.10;;;21.10;56.30;;;;;;5017244;28;20317;-71
2022/10/11 09:44:41;;;;;;;6.57;4.53;;;21.10;56.30;;;;;;5017356;28;20254;-71
2022/10/11 09:47:11;;;;;;;4.32;3.78;;;21.10;56.30;;;;;;5017355;28;20323;-71
2022/10/11 09:49:40;;;;;;;5.03;4.20;;;21.10;56.30;;;;;;5017334;28;20202;-71
2022/10/11 09:52:14;;;;;;;5.88;5.15;;;21.10;56.30;;;;;;5017088;28;20227;-71
2022/10/11 09:54:42;;;;;;;7.00;4.57;;;21.10;56.30;;;;;;5017259;28;20204;-71
2022/10/11 09:57:19;;;;;;;5.47;4.97;;;21.10;56.30;;;;;;5017096;28;20645;-71
2022/10/11 09:59:58;;;;;;;5.47;4.55;;;21.10;56.40;;;;;;5017285;28;20214;-71
2022/10/11 10:02:25;;;;;;;7.30;4.80;;;21.10;56.50;;;;;;5016844;28;20314;-72
2022/10/11 10:04:58;;;;;;;6.40;4.32;;;21.10;56.40;;;;;;5017102;28;20196;-72
2022/10/11 10:07:25;;;;;;;6.40;4.43;;;21.10;56.40;;;;;;5016977;28;20207;-72
2022/10/11 10:09:52;;;;;;;8.02;5.45;;;21.10;56.40;;;;;;5016949;28;20254;-72
2022/10/11 10:12:21;;;;;;;4.68;3.97;;;21.00;56.40;;;;;;5017012;28;20250;-72
2022/10/11 10:14:55;;;;;;;9.50;5.93;;;21.00;56.50;;;;;;5017110;28;20196;-72
2022/10/11 10:17:22;;;;;;;4.90;4.03;;;21.00;56.70;;;;;;5016834;28;20207;-72
2022/10/11 10:19:50;;;;;;;6.18;4.35;;;21.00;56.70;;;;;;5016950;28;20602;-71
2022/10/11 10:22:18;;;;;;;4.80;3.50;;;21.00;56.70;;;;;;5016946;28;20235;-71
2022/10/11 10:24:45;;;;;;;4.32;3.70;;;21.00;56.70;;;;;;5016684;28;20669;-71
2022/10/11 10:27:17;;;;;;;3.53;3.08;;;21.00;56.70;;;;;;5016726;28;20196;-71
2022/10/11 10:29:58;;;;;;;4.47;3.97;;;21.00;57.40;;;;;;5016676;28;20200;-71
2022/10/11 10:32:27;;;;;;;4.18;3.10;;;21.00;56.80;;;;;;5034331;28;20293;-71
2022/10/11 10:35:03;;;;;;;4.78;3.47;;;21.00;56.90;;;;;;5016721;28;20200;-71
2022/10/11 10:37:33;;;;;;;4.38;3.67;;;20.90;56.80;;;;;;5016469;28;20275;-71
2022/10/11 10:40:02;;;;;;;4.05;3.00;;;20.90;56.80;;;;;;5016543;28;20290;-71
2022/10/11 10:42:29;;;;;;;6.00;4.55;;;20.90;56.80;;;;;;5016160;28;20758;-71
2022/10/11 10:44:58;;;;;;;5.78;4.03;;;20.90;56.80;;;;;;5000936;28;20210;-71
2022/10/11 10:47:41;;;;;;;4.55;3.58;;;20.90;56.90;;;;;;5016401;28;20647;-71
2022/10/11 10:50:12;;;;;;;3.75;3.33;;;20.90;56.90;;;;;;5016315;28;20192;-72
2022/10/11 10:52:48;;;;;;;4.38;3.75;;;21.00;57.00;;;;;;5016479;28;20306;-72
2022/10/11 10:55:21;;;;;;;5.38;3.42;;;20.90;56.80;;;;;;5016344;28;20215;-72
2022/10/11 10:57:58;;;;;;;4.53;3.70;;;20.90;56.90;;;;;;5017298;28;20200;-72
2022/10/11 11:00:26;;;;;;;6.18;4.45;;;21.00;57.00;;;;;;5012919;28;20250;-72
2022/10/11 11:02:56;;;;;;;5.07;4.57;;;21.00;57.00;;;;;;5016042;28;20226;-72
2022/10/11 11:05:31;;;;;;;5.75;4.13;;;21.00;56.90;;;;;;5015998;28;20200;-72
2022/10/11 11:08:01;;;;;;;6.25;4.13;;;21.00;56.50;;;;;;5016079;28;20642;-72
2022/10/11 11:10:33;;;;;;;4.63;4.15;;;21.00;56.30;;;;;;5034649;28;20176;-72
2022/10/11 11:13:08;;;;;;;6.00;4.30;;;21.10;56.30;;;;;;5016299;28;20219;-72
2022/10/11 11:15:38;;;;;;;6.30;3.90;;;21.10;56.20;;;;;;5016035;28;20282;-72
2022/10/11 11:18:16;;;;;;;5.35;4.28;;;21.10;56.10;;;;;;5015736;28;20200;-72
2022/10/11 11:20:50;;;;;;;4.88;4.32;;;21.20;56.10;;;;;;5015912;28;20192;-72
2022/10/11 11:23:22;;;;;;;4.70;4.22;;;21.20;56.00;;;;;;5015880;28;20188;-72
2022/10/11 11:25:52;;;;;;;5.22;4.32;;;21.20;56.00;;;;;;5015954;28;20279;-72
2022/10/11 11:28:31;;;;;;;5.43;3.70;;;21.20;55.90;;;;;;5015822;28;20647;-72
2022/10/11 11:31:01;;;;;;;5.10;4.38;;;21.20;55.80;;;;;;5015849;28;20567;-72
2022/10/11 11:33:34;;;;;;;4.97;4.00;;;21.20;55.80;;;;;;5016782;28;20593;-72
2022/10/11 11:36:03;;;;;;;4.38;3.65;;;21.30;55.90;;;;;;5017991;28;20228;-72
2022/10/11 11:38:34;;;;;;;5.65;4.40;;;21.30;55.80;;;;;;5019820;28;20566;-72
2022/10/11 11:41:03;;;;;;;3.80;3.40;;;21.30;55.60;;;;;;5019633;28;20230;-72
2022/10/11 11:43:33;;;;;;;4.72;4.25;;;21.30;55.60;;;;;;5020002;28;20204;-72
2022/10/11 11:46:05;;;;;;;6.30;5.18;;;21.30;55.60;;;;;;5019636;28;20232;-71
2022/10/11 11:48:32;;;;;;;5.07;4.03;;;21.40;55.70;;;;;;5019514;28;20207;-70
2022/10/11 11:51:01;;;;;;;4.53;3.85;;;21.30;55.60;;;;;;5019428;28;20216;-70
2022/10/11 11:53:40;;;;;;;6.25;4.18;;;21.30;55.60;;;;;;5019425;28;20207;-70
2022/10/11 11:56:09;;;;;;;4.25;3.75;;;21.30;55.60;;;;;;5019457;28;20749;-71
2022/10/11 11:58:38;;;;;;;6.00;4.47;;;21.30;55.60;;;;;;5019467;28;20250;-72
2022/10/11 12:01:12;;;;;;;4.38;3.90;;;21.40;55.70;;;;;;5019169;28;20227;-71
2022/10/11 12:03:41;;;;;;;3.97;3.60;;;21.30;55.60;;;;;;5019451;28;20286;-71
2022/10/11 12:06:25;;;;;;;4.85;4.00;;;21.30;55.60;;;;;;5019241;28;20200;-71
2022/10/11 12:09:00;;;;;;;4.43;3.88;;;21.30;55.60;;;;;;5019557;28;20214;-71
2022/10/11 12:11:28;;;;;;;3.88;3.45;;;21.30;55.60;;;;;;5019675;28;20270;-71
2022/10/11 12:13:55;;;;;;;5.07;3.63;;;21.30;55.60;;;;;;5019484;28;20647;-71
2022/10/11 12:16:23;;;;;;;6.65;4.13;;;21.40;55.70;;;;;;5019048;28;20200;-71
2022/10/11 12:18:52;;;;;;;4.68;3.55;;;21.30;55.60;;;;;;5018857;28;20203;-71
2022/10/11 12:21:21;;;;;;;4.07;3.67;;;21.30;55.60;;;;;;5018808;28;20706;-72
2022/10/11 12:23:49;;;;;;;5.03;3.50;;;21.40;55.70;;;;;;5018920;28;20203;-72
2022/10/11 12:26:31;;;;;;;3.88;3.58;;;21.40;55.70;;;;;;5036493;28;20189;-72
2022/10/11 12:29:02;;;;;;;4.15;3.70;;;21.40;55.70;;;;;;5018738;28;20199;-72
2022/10/11 12:31:32;;;;;;;4.32;3.47;;;21.40;55.60;;;;;;5019471;28;20682;-72
2022/10/11 12:34:27;;;;;;;4.22;2.95;;;21.50;55.50;;;;;;5018666;28;20238;-70
2022/10/11 12:36:54;;;;;;;6.45;4.60;;;21.40;55.40;;;;;;5018708;28;20200;-70
2022/10/11 12:39:46;;;;;;;4.20;3.38;;;21.40;55.30;;;;;;5018881;28;20220;-70
2022/10/11 12:42:24;;;;;;;4.45;3.70;;;21.50;55.20;;;;;;5018550;28;20230;-71
2022/10/11 12:45:30;;;;;;;5.20;4.53;;;21.40;55.20;;;;;;5018695;28;20204;-71
2022/10/11 12:48:30;;;;;;;4.05;3.65;;;21.50;55.30;;;;;;5017158;28;20200;-71
2022/10/11 12:51:04;;;;;;;3.60;3.20;;;21.50;55.20;;;;;;5015145;28;20285;-71
2022/10/11 12:53:45;;;;;;;6.70;3.78;;;21.50;55.10;;;;;;5019501;28;20246;-71
2022/10/11 12:56:12;;;;;;;5.32;4.38;;;21.50;55.00;;;;;;5037298;28;20172;-71
2022/10/11 12:58:40;;;;;;;4.97;3.40;;;21.50;55.00;;;;;;5020448;28;20227;-71
2022/10/11 13:01:10;;;;;;;3.90;3.50;;;21.60;55.00;;;;;;5018929;28;20284;-73